CKT91F KBGR-EGCC
Flight info
| Callsign | CKT91F |
|---|---|
| Flight time | N/A |
| Altitude | 39000 |
| Route | MLT DCT DANOL DCT TUDEP/M083F390 DCT 52N050W 53N040W 54N030W 55N020W DCT RESNO DCT NETKI/N0474F390 DCT BOFUM Q37 MALUD |
| Aircraft | L101/H-SDFGHIRWXY/S |
Departure
| Time | 2026-05-06 13:38 |
|---|---|
| Airport | Bangor International Airport (KBGR) |
Arrival
| Time | N/A |
|---|---|
| Airport | Manchester Airport (EGCC) |
| Time | Latitude | Longitude | Altitude | Speed | Heading |
|---|---|---|---|---|---|
| 2026-05-06 12:16 | 44.80947 | -68.82177 | 183 ft | 0 kts | 133° |
| 2026-05-06 13:32 | 44.80943 | -68.82170 | 183 ft | 3 kts | 134° |
| 2026-05-06 13:32 | 44.80905 | -68.82152 | 183 ft | 8 kts | 184° |
| 2026-05-06 13:32 | 44.80860 | -68.82192 | 183 ft | 7 kts | 245° |
| 2026-05-06 13:33 | 44.80844 | -68.82283 | 183 ft | 12 kts | 261° |
| 2026-05-06 13:33 | 44.80882 | -68.82404 | 199 ft | 16 kts | 316° |
| 2026-05-06 13:33 | 44.80967 | -68.82532 | 193 ft | 19 kts | 315° |
| 2026-05-06 13:33 | 44.81066 | -68.82673 | 194 ft | 22 kts | 314° |
| 2026-05-06 13:34 | 44.81172 | -68.82828 | 193 ft | 20 kts | 315° |
| 2026-05-06 13:34 | 44.81273 | -68.82973 | 199 ft | 22 kts | 316° |
| 2026-05-06 13:34 | 44.81383 | -68.83133 | 200 ft | 24 kts | 314° |
| 2026-05-06 13:34 | 44.81497 | -68.83299 | 203 ft | 24 kts | 314° |
| 2026-05-06 13:35 | 44.81616 | -68.83470 | 205 ft | 24 kts | 314° |
| 2026-05-06 13:35 | 44.81737 | -68.83646 | 205 ft | 26 kts | 314° |
| 2026-05-06 13:35 | 44.81779 | -68.83707 | 207 ft | 26 kts | 314° |
| 2026-05-06 13:36 | 44.82003 | -68.84122 | 205 ft | 12 kts | 246° |
| 2026-05-06 13:36 | 44.81943 | -68.84219 | 203 ft | 13 kts | 224° |
| 2026-05-06 13:36 | 44.81928 | -68.84239 | 213 ft | 0 kts | 223° |
| 2026-05-06 13:36 | 44.81925 | -68.84243 | 209 ft | 3 kts | 223° |
| 2026-05-06 13:37 | 44.81888 | -68.84283 | 213 ft | 11 kts | 211° |
| 2026-05-06 13:37 | 44.81833 | -68.84308 | 206 ft | 14 kts | 187° |
| 2026-05-06 13:37 | 44.81751 | -68.84264 | 207 ft | 0 kts | 135° |
| 2026-05-06 13:38 | 44.81642 | -68.84109 | 207 ft | 62 kts | 134° |
| 2026-05-06 13:38 | 44.81130 | -68.83363 | 202 ft | 146 kts | 135° |
| 2026-05-06 13:38 | 44.80336 | -68.82229 | 820 ft | 171 kts | 137° |
| 2026-05-06 13:39 | 44.79443 | -68.81026 | 1745 ft | 189 kts | 142° |
| 2026-05-06 13:39 | 44.78441 | -68.79770 | 2314 ft | 199 kts | 145° |
| 2026-05-06 13:39 | 44.77358 | -68.78556 | 3008 ft | 195 kts | 149° |
| 2026-05-06 13:39 | 44.76410 | -68.77202 | 3746 ft | 200 kts | 130° |
| 2026-05-06 13:40 | 44.75655 | -68.74746 | 4776 ft | 217 kts | 114° |
| 2026-05-06 13:40 | 44.75479 | -68.73314 | 5187 ft | 230 kts | 102° |
| 2026-05-06 13:40 | 44.75485 | -68.70986 | 5892 ft | 243 kts | 96° |
| 2026-05-06 13:40 | 44.75601 | -68.68576 | 6485 ft | 251 kts | 94° |
| 2026-05-06 13:41 | 44.75777 | -68.66090 | 6877 ft | 259 kts | 89° |
| 2026-05-06 13:41 | 44.76079 | -68.63587 | 7219 ft | 263 kts | 84° |
| 2026-05-06 13:41 | 44.76593 | -68.61114 | 7552 ft | 267 kts | 76° |
| 2026-05-06 13:41 | 44.77293 | -68.58661 | 7901 ft | 271 kts | 69° |
| 2026-05-06 13:42 | 44.78133 | -68.56283 | 8262 ft | 273 kts | 66° |
| 2026-05-06 13:43 | 44.82237 | -68.45467 | 9637 ft | 343 kts | 58° |
| 2026-05-06 13:43 | 44.83803 | -68.42973 | 9957 ft | 345 kts | 39° |
| 2026-05-06 13:43 | 44.85823 | -68.41184 | 10270 ft | 343 kts | 20° |
| 2026-05-06 13:43 | 44.88071 | -68.40078 | 10637 ft | 343 kts | 11° |
| 2026-05-06 13:44 | 44.90420 | -68.39255 | 11009 ft | 345 kts | 7° |
| 2026-05-06 13:44 | 44.92751 | -68.38572 | 11340 ft | 346 kts | 6° |
| 2026-05-06 13:44 | 44.95124 | -68.37938 | 11692 ft | 348 kts | 5° |
| 2026-05-06 13:44 | 44.97541 | -68.37249 | 12046 ft | 352 kts | 8° |
| 2026-05-06 13:45 | 44.99907 | -68.36521 | 12401 ft | 354 kts | 6° |
| 2026-05-06 13:45 | 45.04774 | -68.35222 | 13134 ft | 358 kts | 4° |
| 2026-05-06 13:45 | 45.07235 | -68.34591 | 13496 ft | 360 kts | 4° |
| 2026-05-06 13:46 | 45.09705 | -68.33955 | 13853 ft | 356 kts | 4° |
| 2026-05-06 13:46 | 45.12164 | -68.33311 | 14324 ft | 370 kts | 4° |
| 2026-05-06 13:46 | 45.14803 | -68.32641 | 14890 ft | 399 kts | 4° |
| 2026-05-06 13:46 | 45.17635 | -68.31941 | 15427 ft | 426 kts | 4° |
| 2026-05-06 13:47 | 45.20611 | -68.31221 | 15957 ft | 439 kts | 4° |
| 2026-05-06 13:47 | 45.23652 | -68.30488 | 16544 ft | 445 kts | 4° |
| 2026-05-06 13:47 | 45.26720 | -68.29748 | 17110 ft | 450 kts | 4° |
| 2026-05-06 13:47 | 45.29822 | -68.28998 | 17706 ft | 453 kts | 4° |
| 2026-05-06 13:48 | 45.32902 | -68.28246 | 18278 ft | 457 kts | 4° |
| 2026-05-06 13:48 | 45.36043 | -68.27472 | 18788 ft | 460 kts | 4° |
| 2026-05-06 13:48 | 45.39214 | -68.26689 | 19313 ft | 463 kts | 4° |
| 2026-05-06 13:48 | 45.42398 | -68.25903 | 19835 ft | 466 kts | 4° |
| 2026-05-06 13:49 | 45.49102 | -68.24254 | 20980 ft | 473 kts | 4° |
| 2026-05-06 13:49 | 45.52361 | -68.23452 | 21539 ft | 477 kts | 4° |
| 2026-05-06 13:49 | 45.55612 | -68.22655 | 22100 ft | 481 kts | 4° |
| 2026-05-06 13:50 | 45.58927 | -68.21848 | 22680 ft | 485 kts | 4° |
| 2026-05-06 13:50 | 45.62280 | -68.21036 | 23269 ft | 489 kts | 4° |
| 2026-05-06 13:50 | 45.65649 | -68.20214 | 23818 ft | 494 kts | 5° |
| 2026-05-06 13:50 | 45.69005 | -68.18984 | 24319 ft | 503 kts | 14° |
| 2026-05-06 13:51 | 45.72265 | -68.17048 | 24840 ft | 511 kts | 23° |
| 2026-05-06 13:51 | 45.75345 | -68.14441 | 25361 ft | 519 kts | 32° |
| 2026-05-06 13:51 | 45.78187 | -68.11192 | 25905 ft | 525 kts | 40° |
| 2026-05-06 13:51 | 45.80751 | -68.07425 | 26450 ft | 531 kts | 47° |
| 2026-05-06 13:52 | 45.83137 | -68.03340 | 27007 ft | 536 kts | 50° |
| 2026-05-06 13:52 | 45.85416 | -67.99083 | 27598 ft | 541 kts | 52° |
| 2026-05-06 13:52 | 45.87628 | -67.94736 | 28167 ft | 547 kts | 53° |
| 2026-05-06 13:52 | 45.89834 | -67.90263 | 28764 ft | 553 kts | 53° |
| 2026-05-06 13:53 | 45.92044 | -67.85695 | 29355 ft | 558 kts | 53° |
| 2026-05-06 13:53 | 45.94242 | -67.81091 | 29991 ft | 563 kts | 53° |
| 2026-05-06 13:53 | 45.96460 | -67.76396 | 30531 ft | 568 kts | 54° |
| 2026-05-06 13:53 | 45.98670 | -67.71681 | 31058 ft | 570 kts | 54° |
| 2026-05-06 13:54 | 46.00873 | -67.66945 | 31614 ft | 567 kts | 54° |
| 2026-05-06 13:54 | 46.03057 | -67.62227 | 32160 ft | 565 kts | 54° |
| 2026-05-06 13:54 | 46.05222 | -67.57521 | 32747 ft | 563 kts | 54° |
| 2026-05-06 13:54 | 46.07365 | -67.52813 | 33337 ft | 561 kts | 54° |
| 2026-05-06 13:55 | 46.09433 | -67.48049 | 33950 ft | 559 kts | 56° |
| 2026-05-06 13:55 | 46.11373 | -67.43287 | 34468 ft | 557 kts | 58° |
| 2026-05-06 13:55 | 46.13332 | -67.38478 | 35003 ft | 555 kts | 56° |
| 2026-05-06 13:55 | 46.15348 | -67.33741 | 35590 ft | 552 kts | 55° |
| 2026-05-06 13:56 | 46.17391 | -67.29063 | 36139 ft | 549 kts | 54° |
| 2026-05-06 13:56 | 46.19456 | -67.24416 | 36725 ft | 546 kts | 54° |
| 2026-05-06 13:56 | 46.21522 | -67.19818 | 37304 ft | 543 kts | 54° |
| 2026-05-06 13:56 | 46.23589 | -67.15254 | 37942 ft | 540 kts | 54° |
| 2026-05-06 13:57 | 46.25650 | -67.10737 | 38568 ft | 538 kts | 54° |
| 2026-05-06 13:57 | 46.27696 | -67.06277 | 38796 ft | 539 kts | 54° |
| 2026-05-06 13:57 | 46.29758 | -67.01738 | 38972 ft | 541 kts | 56° |
| 2026-05-06 13:57 | 46.31743 | -66.97122 | 38954 ft | 539 kts | 56° |
| 2026-05-06 13:58 | 46.35791 | -66.88009 | 39011 ft | 538 kts | 54° |
| 2026-05-06 13:58 | 46.39938 | -66.78990 | 39012 ft | 538 kts | 54° |
| 2026-05-06 13:59 | 46.44126 | -66.69992 | 39017 ft | 538 kts | 53° |
| 2026-05-06 13:59 | 46.48327 | -66.61008 | 39012 ft | 538 kts | 53° |
| 2026-05-06 14:00 | 46.52537 | -66.52024 | 39013 ft | 538 kts | 53° |
| 2026-05-06 14:00 | 46.56729 | -66.43079 | 39013 ft | 538 kts | 53° |
| 2026-05-06 14:01 | 46.60941 | -66.34093 | 39014 ft | 538 kts | 53° |
| 2026-05-06 14:01 | 46.65144 | -66.25082 | 39013 ft | 537 kts | 54° |
| 2026-05-06 14:02 | 46.69341 | -66.16090 | 39024 ft | 536 kts | 54° |
| 2026-05-06 14:02 | 46.73536 | -66.07120 | 39034 ft | 535 kts | 53° |
| 2026-05-06 14:03 | 46.77701 | -65.98183 | 39037 ft | 535 kts | 54° |
| 2026-05-06 14:03 | 46.81869 | -65.89165 | 39029 ft | 535 kts | 54° |
| 2026-05-06 14:04 | 46.86077 | -65.80193 | 39029 ft | 535 kts | 54° |
| 2026-05-06 14:04 | 46.89468 | -65.72525 | 39049 ft | 536 kts | 56° |
| 2026-05-06 14:05 | 46.93548 | -65.63372 | 39023 ft | 536 kts | 54° |
| 2026-05-06 14:05 | 46.97715 | -65.54406 | 39020 ft | 536 kts | 53° |
| 2026-05-06 14:06 | 47.01965 | -65.45438 | 39025 ft | 535 kts | 53° |
| 2026-05-06 14:06 | 47.05512 | -65.38013 | 39018 ft | 535 kts | 53° |
| 2026-05-06 14:07 | 47.15359 | -65.17546 | 39032 ft | 535 kts | 53° |
| 2026-05-06 14:08 | 47.23542 | -64.99209 | 39012 ft | 537 kts | 57° |
| 2026-05-06 14:09 | 47.27444 | -64.89836 | 39007 ft | 537 kts | 58° |
| 2026-05-06 14:09 | 47.31338 | -64.80424 | 39011 ft | 537 kts | 58° |
| 2026-05-06 14:10 | 47.33911 | -64.74193 | 39008 ft | 537 kts | 58° |
| 2026-05-06 14:10 | 47.38709 | -64.62536 | 39010 ft | 536 kts | 58° |
| 2026-05-06 14:11 | 47.42574 | -64.53105 | 39015 ft | 537 kts | 58° |
| 2026-05-06 14:11 | 47.46423 | -64.43669 | 39012 ft | 536 kts | 58° |
| 2026-05-06 14:12 | 47.50274 | -64.34203 | 39015 ft | 537 kts | 58° |
| 2026-05-06 14:12 | 47.54130 | -64.24694 | 39011 ft | 537 kts | 58° |
| 2026-05-06 14:13 | 47.57942 | -64.15260 | 39012 ft | 537 kts | 58° |
| 2026-05-06 14:13 | 47.61780 | -64.05728 | 39013 ft | 537 kts | 58° |
| 2026-05-06 14:14 | 47.65607 | -63.96192 | 39020 ft | 539 kts | 59° |
| 2026-05-06 14:14 | 47.69426 | -63.86637 | 39008 ft | 537 kts | 59° |
| 2026-05-06 14:15 | 47.73236 | -63.77072 | 39012 ft | 537 kts | 59° |
| 2026-05-06 14:15 | 47.77037 | -63.67496 | 39010 ft | 537 kts | 59° |
| 2026-05-06 14:16 | 47.80831 | -63.57904 | 39019 ft | 540 kts | 59° |
| 2026-05-06 14:16 | 47.84634 | -63.48256 | 39014 ft | 540 kts | 59° |
| 2026-05-06 14:17 | 47.88407 | -63.38649 | 39015 ft | 540 kts | 59° |
| 2026-05-06 14:17 | 47.92200 | -63.28953 | 39017 ft | 540 kts | 59° |
| 2026-05-06 14:18 | 47.95951 | -63.19330 | 39016 ft | 540 kts | 59° |
| 2026-05-06 14:18 | 47.99717 | -63.09635 | 39014 ft | 540 kts | 59° |
| 2026-05-06 14:19 | 48.03475 | -62.99925 | 39017 ft | 540 kts | 59° |
| 2026-05-06 14:19 | 48.07227 | -62.90182 | 39025 ft | 541 kts | 60° |
| 2026-05-06 14:20 | 48.10966 | -62.80440 | 39021 ft | 541 kts | 60° |
| 2026-05-06 14:20 | 48.14699 | -62.70683 | 39021 ft | 541 kts | 60° |
| 2026-05-06 14:21 | 48.18440 | -62.60874 | 39022 ft | 541 kts | 60° |
| 2026-05-06 14:21 | 48.22172 | -62.51052 | 39035 ft | 543 kts | 60° |
| 2026-05-06 14:22 | 48.25911 | -62.41177 | 39025 ft | 543 kts | 60° |
| 2026-05-06 14:22 | 48.29625 | -62.31325 | 39024 ft | 543 kts | 60° |
| 2026-05-06 14:23 | 48.33337 | -62.21446 | 39031 ft | 543 kts | 60° |
| 2026-05-06 14:23 | 48.37046 | -62.11540 | 39036 ft | 543 kts | 60° |
| 2026-05-06 14:24 | 48.40749 | -62.01611 | 39045 ft | 543 kts | 60° |
| 2026-05-06 14:24 | 48.44423 | -61.91719 | 39045 ft | 543 kts | 60° |
| 2026-05-06 14:25 | 48.48112 | -61.81749 | 39039 ft | 543 kts | 60° |
| 2026-05-06 14:25 | 48.51770 | -61.71823 | 39051 ft | 542 kts | 60° |
| 2026-05-06 14:26 | 48.55416 | -61.61894 | 39047 ft | 542 kts | 60° |
| 2026-05-06 14:26 | 48.59067 | -61.51915 | 39030 ft | 542 kts | 61° |
| 2026-05-06 14:27 | 48.62701 | -61.41944 | 39044 ft | 542 kts | 61° |
| 2026-05-06 14:27 | 48.66331 | -61.31951 | 39045 ft | 543 kts | 61° |
| 2026-05-06 14:28 | 48.69971 | -61.21886 | 39048 ft | 543 kts | 61° |
| 2026-05-06 14:28 | 48.73583 | -61.11862 | 39049 ft | 543 kts | 61° |
| 2026-05-06 14:29 | 48.77195 | -61.01799 | 39066 ft | 543 kts | 62° |
| 2026-05-06 14:29 | 48.80803 | -60.91710 | 39051 ft | 544 kts | 62° |
| 2026-05-06 14:30 | 48.84389 | -60.81642 | 39052 ft | 544 kts | 62° |
| 2026-05-06 14:30 | 48.87988 | -60.71495 | 39044 ft | 544 kts | 62° |
| 2026-05-06 14:31 | 48.91558 | -60.61396 | 39071 ft | 545 kts | 62° |
| 2026-05-06 14:31 | 48.95142 | -60.51216 | 39059 ft | 546 kts | 62° |
| 2026-05-06 14:32 | 48.98722 | -60.41008 | 39067 ft | 546 kts | 62° |
| 2026-05-06 14:32 | 49.02278 | -60.30826 | 39069 ft | 546 kts | 62° |
| 2026-05-06 14:33 | 49.05818 | -60.20649 | 39081 ft | 546 kts | 62° |
| 2026-05-06 14:33 | 49.09379 | -60.10375 | 39063 ft | 546 kts | 62° |
| 2026-05-06 14:34 | 49.12917 | -60.00121 | 39076 ft | 546 kts | 63° |
| 2026-05-06 14:34 | 49.16453 | -59.89833 | 39039 ft | 546 kts | 63° |
| 2026-05-06 14:35 | 49.19983 | -59.79525 | 39068 ft | 546 kts | 63° |
| 2026-05-06 14:35 | 49.23490 | -59.69242 | 39075 ft | 546 kts | 63° |
| 2026-05-06 14:36 | 49.26972 | -59.58990 | 39073 ft | 546 kts | 63° |
| 2026-05-06 14:36 | 49.30487 | -59.48600 | 39070 ft | 546 kts | 63° |
| 2026-05-06 14:37 | 49.33956 | -59.38305 | 39079 ft | 546 kts | 63° |
| 2026-05-06 14:37 | 49.37434 | -59.27941 | 39074 ft | 546 kts | 63° |
| 2026-05-06 14:38 | 49.40909 | -59.17544 | 39078 ft | 546 kts | 63° |
| 2026-05-06 14:38 | 49.44347 | -59.07215 | 39077 ft | 546 kts | 63° |
| 2026-05-06 14:39 | 49.47787 | -58.96836 | 39077 ft | 543 kts | 63° |
| 2026-05-06 14:39 | 49.51204 | -58.86490 | 39083 ft | 543 kts | 63° |
| 2026-05-06 14:40 | 49.54623 | -58.76092 | 39084 ft | 543 kts | 63° |
| 2026-05-06 14:40 | 49.57467 | -58.67408 | 39087 ft | 543 kts | 63° |
| 2026-05-06 14:41 | 49.60856 | -58.57020 | 39093 ft | 543 kts | 63° |
| 2026-05-06 14:41 | 49.64226 | -58.46647 | 39090 ft | 543 kts | 64° |
| 2026-05-06 14:42 | 49.67599 | -58.36221 | 39081 ft | 543 kts | 64° |
| 2026-05-06 14:42 | 49.70954 | -58.25806 | 39084 ft | 543 kts | 64° |
| 2026-05-06 14:43 | 49.74324 | -58.15303 | 39053 ft | 541 kts | 64° |
| 2026-05-06 14:43 | 49.77649 | -58.04900 | 39081 ft | 540 kts | 64° |
| 2026-05-06 14:44 | 49.80968 | -57.94473 | 39081 ft | 540 kts | 64° |
| 2026-05-06 14:45 | 49.85920 | -57.78825 | 39092 ft | 540 kts | 64° |
| 2026-05-06 14:45 | 49.89200 | -57.68407 | 39078 ft | 539 kts | 64° |
| 2026-05-06 14:46 | 49.92484 | -57.57931 | 39075 ft | 539 kts | 64° |
| 2026-05-06 14:46 | 49.95745 | -57.47484 | 39064 ft | 539 kts | 64° |
| 2026-05-06 14:47 | 49.98990 | -57.37046 | 39068 ft | 539 kts | 64° |
| 2026-05-06 14:47 | 50.02247 | -57.26522 | 39034 ft | 539 kts | 65° |
| 2026-05-06 14:48 | 50.05481 | -57.16031 | 39058 ft | 539 kts | 65° |
| 2026-05-06 14:48 | 50.08722 | -57.05469 | 39060 ft | 539 kts | 65° |
| 2026-05-06 14:49 | 50.11929 | -56.94974 | 39043 ft | 539 kts | 65° |
| 2026-05-06 14:49 | 50.15147 | -56.84397 | 39054 ft | 540 kts | 65° |
| 2026-05-06 14:50 | 50.18355 | -56.73807 | 39047 ft | 540 kts | 65° |
| 2026-05-06 14:50 | 50.21559 | -56.63184 | 39047 ft | 540 kts | 65° |
| 2026-05-06 14:51 | 50.24750 | -56.52556 | 39040 ft | 540 kts | 65° |
| 2026-05-06 14:51 | 50.27920 | -56.41954 | 39048 ft | 540 kts | 65° |
| 2026-05-06 14:52 | 50.31099 | -56.31273 | 39028 ft | 541 kts | 65° |
| 2026-05-06 14:52 | 50.34255 | -56.20624 | 39036 ft | 541 kts | 65° |
| 2026-05-06 14:53 | 50.37407 | -56.09939 | 39037 ft | 541 kts | 65° |
| 2026-05-06 14:53 | 50.40565 | -55.99185 | 39049 ft | 542 kts | 65° |
| 2026-05-06 14:54 | 50.43705 | -55.88446 | 39041 ft | 542 kts | 65° |
| 2026-05-06 14:54 | 50.46833 | -55.77699 | 39042 ft | 542 kts | 65° |
| 2026-05-06 14:55 | 50.49954 | -55.66927 | 39044 ft | 542 kts | 66° |
| 2026-05-06 14:55 | 50.53067 | -55.56131 | 39044 ft | 543 kts | 65° |
| 2026-05-06 14:56 | 50.56184 | -55.45274 | 39046 ft | 543 kts | 66° |
| 2026-05-06 14:56 | 50.59275 | -55.34462 | 39044 ft | 543 kts | 66° |
| 2026-05-06 14:57 | 50.62351 | -55.23646 | 39043 ft | 543 kts | 66° |
| 2026-05-06 14:57 | 50.65437 | -55.12749 | 39044 ft | 543 kts | 66° |
| 2026-05-06 14:58 | 50.68492 | -55.01906 | 39046 ft | 543 kts | 66° |
| 2026-05-06 14:58 | 50.71548 | -54.91013 | 39047 ft | 543 kts | 66° |
| 2026-05-06 14:59 | 50.72559 | -54.87395 | 39046 ft | 543 kts | 66° |
| 2026-05-06 14:59 | 50.77393 | -54.68990 | 39052 ft | 543 kts | 68° |
| 2026-05-06 15:00 | 50.80313 | -54.57963 | 39052 ft | 543 kts | 67° |
| 2026-05-06 15:00 | 50.83207 | -54.47005 | 39049 ft | 543 kts | 67° |
| 2026-05-06 15:01 | 50.86193 | -54.35999 | 39050 ft | 543 kts | 67° |
| 2026-05-06 15:01 | 50.89058 | -54.24905 | 39068 ft | 544 kts | 67° |
| 2026-05-06 15:02 | 50.92003 | -54.13862 | 39063 ft | 544 kts | 66° |
| 2026-05-06 15:02 | 50.95005 | -54.02850 | 39058 ft | 544 kts | 66° |
| 2026-05-06 15:03 | 50.97960 | -53.91877 | 39056 ft | 544 kts | 66° |
| 2026-05-06 15:03 | 51.00928 | -53.80837 | 39074 ft | 544 kts | 67° |
| 2026-05-06 15:04 | 51.03902 | -53.69772 | 39063 ft | 544 kts | 65° |
| 2026-05-06 15:04 | 51.06907 | -53.58725 | 39057 ft | 544 kts | 66° |
| 2026-05-06 15:05 | 51.09945 | -53.47674 | 39046 ft | 544 kts | 65° |
| 2026-05-06 15:05 | 51.12960 | -53.36684 | 39057 ft | 543 kts | 65° |
| 2026-05-06 15:06 | 51.15829 | -53.25569 | 39068 ft | 544 kts | 66° |
| 2026-05-06 15:06 | 51.18894 | -53.14567 | 39064 ft | 543 kts | 64° |
| 2026-05-06 15:07 | 51.22182 | -53.03736 | 39069 ft | 543 kts | 63° |
| 2026-05-06 15:07 | 51.25198 | -52.92641 | 39068 ft | 544 kts | 67° |
| 2026-05-06 15:08 | 51.28078 | -52.81477 | 39069 ft | 543 kts | 65° |
| 2026-05-06 15:08 | 51.31056 | -52.70458 | 39064 ft | 543 kts | 65° |
| 2026-05-06 15:09 | 51.34064 | -52.59393 | 39072 ft | 543 kts | 65° |
| 2026-05-06 15:09 | 51.37063 | -52.48311 | 39057 ft | 543 kts | 65° |
| 2026-05-06 15:10 | 51.40040 | -52.37242 | 39068 ft | 539 kts | 65° |
| 2026-05-06 15:10 | 51.42998 | -52.26193 | 39075 ft | 539 kts | 65° |
| 2026-05-06 15:11 | 51.45933 | -52.15177 | 39074 ft | 539 kts | 65° |
| 2026-05-06 15:11 | 51.48869 | -52.04105 | 39075 ft | 539 kts | 65° |
| 2026-05-06 15:12 | 51.51792 | -51.93015 | 39081 ft | 538 kts | 65° |
| 2026-05-06 15:12 | 51.54704 | -51.81912 | 39083 ft | 538 kts | 65° |
| 2026-05-06 15:13 | 51.57590 | -51.70847 | 39082 ft | 538 kts | 65° |
| 2026-05-06 15:13 | 51.60460 | -51.59787 | 39079 ft | 538 kts | 65° |
| 2026-05-06 15:14 | 51.63332 | -51.48652 | 39089 ft | 537 kts | 65° |
| 2026-05-06 15:14 | 51.66179 | -51.37551 | 39079 ft | 534 kts | 65° |
| 2026-05-06 15:15 | 51.68998 | -51.26506 | 39086 ft | 534 kts | 65° |
| 2026-05-06 15:15 | 51.71808 | -51.15441 | 39087 ft | 534 kts | 65° |
| 2026-05-06 15:16 | 51.74610 | -51.04345 | 39099 ft | 532 kts | 65° |
| 2026-05-06 15:16 | 51.77383 | -50.93290 | 39093 ft | 531 kts | 65° |
| 2026-05-06 15:17 | 51.80151 | -50.82200 | 39094 ft | 531 kts | 66° |
| 2026-05-06 15:17 | 51.82904 | -50.71108 | 39094 ft | 531 kts | 66° |
| 2026-05-06 15:18 | 51.85627 | -50.60076 | 39093 ft | 531 kts | 66° |
| 2026-05-06 15:18 | 51.88354 | -50.48950 | 39097 ft | 531 kts | 66° |
| 2026-05-06 15:19 | 51.91066 | -50.37816 | 39097 ft | 532 kts | 66° |
| 2026-05-06 15:19 | 51.93753 | -50.26712 | 39094 ft | 528 kts | 66° |
| 2026-05-06 15:20 | 51.96407 | -50.15668 | 39096 ft | 528 kts | 66° |
| 2026-05-06 15:20 | 51.99051 | -50.04587 | 39110 ft | 525 kts | 67° |
| 2026-05-06 15:21 | 52.01669 | -49.93506 | 39102 ft | 525 kts | 67° |
| 2026-05-06 15:21 | 52.04065 | -49.82288 | 39104 ft | 527 kts | 72° |
| 2026-05-06 15:22 | 52.05885 | -49.70741 | 39107 ft | 528 kts | 75° |
| 2026-05-06 15:22 | 52.07531 | -49.59094 | 39121 ft | 528 kts | 76° |
| 2026-05-06 15:23 | 52.09143 | -49.47497 | 39106 ft | 526 kts | 76° |
| 2026-05-06 15:23 | 52.10745 | -49.35894 | 39109 ft | 525 kts | 76° |
| 2026-05-06 15:24 | 52.12335 | -49.24294 | 39114 ft | 525 kts | 76° |
| 2026-05-06 15:24 | 52.13916 | -49.12682 | 39116 ft | 525 kts | 76° |
| 2026-05-06 15:25 | 52.15476 | -49.01128 | 39134 ft | 525 kts | 76° |
| 2026-05-06 15:25 | 52.17034 | -48.89488 | 39124 ft | 525 kts | 76° |
| 2026-05-06 15:26 | 52.18579 | -48.77861 | 39122 ft | 525 kts | 76° |
| 2026-05-06 15:26 | 52.20106 | -48.66269 | 39131 ft | 525 kts | 76° |
| 2026-05-06 15:27 | 52.21633 | -48.54582 | 39130 ft | 525 kts | 76° |
| 2026-05-06 15:27 | 52.23138 | -48.42971 | 39143 ft | 523 kts | 76° |
| 2026-05-06 15:28 | 52.24632 | -48.31350 | 39135 ft | 523 kts | 76° |
| 2026-05-06 15:28 | 52.25867 | -48.21672 | 39139 ft | 523 kts | 76° |
| 2026-05-06 15:29 | 52.27348 | -48.09979 | 39143 ft | 523 kts | 76° |
| 2026-05-06 15:29 | 52.28798 | -47.98423 | 39137 ft | 523 kts | 76° |
| 2026-05-06 15:30 | 52.30247 | -47.86776 | 39161 ft | 523 kts | 76° |
| 2026-05-06 15:30 | 52.31685 | -47.75107 | 39146 ft | 522 kts | 76° |
| 2026-05-06 15:31 | 52.33107 | -47.63472 | 39153 ft | 522 kts | 76° |
| 2026-05-06 15:31 | 52.34516 | -47.51842 | 39156 ft | 522 kts | 76° |
| 2026-05-06 15:32 | 52.36615 | -47.34333 | 39164 ft | 522 kts | 76° |
| 2026-05-06 15:32 | 52.38000 | -47.22653 | 39176 ft | 523 kts | 76° |
| 2026-05-06 15:33 | 52.39372 | -47.10972 | 39176 ft | 523 kts | 76° |
| 2026-05-06 15:33 | 52.40733 | -46.99280 | 39162 ft | 523 kts | 77° |
| 2026-05-06 15:34 | 52.42079 | -46.87612 | 39178 ft | 523 kts | 77° |
| 2026-05-06 15:34 | 52.43418 | -46.75896 | 39169 ft | 524 kts | 77° |
| 2026-05-06 15:35 | 52.44746 | -46.64164 | 39180 ft | 525 kts | 76° |
| 2026-05-06 15:35 | 52.46065 | -46.52421 | 39180 ft | 525 kts | 76° |
| 2026-05-06 15:36 | 52.47377 | -46.40631 | 39185 ft | 525 kts | 77° |
| 2026-05-06 15:36 | 52.48670 | -46.28883 | 39185 ft | 524 kts | 77° |
| 2026-05-06 15:37 | 52.49953 | -46.17117 | 39195 ft | 524 kts | 77° |
| 2026-05-06 15:37 | 52.51235 | -46.05245 | 39195 ft | 526 kts | 77° |
| 2026-05-06 15:38 | 52.52502 | -45.93427 | 39198 ft | 526 kts | 77° |
| 2026-05-06 15:38 | 52.53760 | -45.81570 | 39204 ft | 528 kts | 77° |
| 2026-05-06 15:39 | 52.55006 | -45.69701 | 39207 ft | 528 kts | 77° |
| 2026-05-06 15:39 | 52.56243 | -45.57805 | 39207 ft | 527 kts | 77° |
| 2026-05-06 15:40 | 52.57462 | -45.45949 | 39218 ft | 529 kts | 77° |
| 2026-05-06 15:40 | 52.58675 | -45.34016 | 39213 ft | 529 kts | 77° |
| 2026-05-06 15:41 | 52.59870 | -45.22133 | 39212 ft | 529 kts | 77° |
| 2026-05-06 15:41 | 52.61061 | -45.10157 | 39213 ft | 529 kts | 77° |
| 2026-05-06 15:42 | 52.62239 | -44.98186 | 39217 ft | 529 kts | 77° |
| 2026-05-06 15:42 | 52.63402 | -44.86239 | 39221 ft | 529 kts | 77° |
| 2026-05-06 15:43 | 52.64547 | -44.74350 | 39224 ft | 529 kts | 77° |
| 2026-05-06 15:43 | 52.65688 | -44.62370 | 39224 ft | 529 kts | 77° |
| 2026-05-06 15:44 | 52.66813 | -44.50433 | 39225 ft | 529 kts | 78° |
| 2026-05-06 15:44 | 52.67934 | -44.38399 | 39249 ft | 528 kts | 77° |
| 2026-05-06 15:45 | 52.69035 | -44.26433 | 39231 ft | 528 kts | 78° |
| 2026-05-06 15:45 | 52.70124 | -44.14471 | 39227 ft | 528 kts | 78° |
| 2026-05-06 15:46 | 52.71197 | -44.02547 | 39228 ft | 527 kts | 78° |
| 2026-05-06 15:46 | 52.72264 | -43.90561 | 39233 ft | 528 kts | 78° |
| 2026-05-06 15:47 | 52.73312 | -43.78636 | 39254 ft | 527 kts | 78° |
| 2026-05-06 15:47 | 52.74347 | -43.66709 | 39235 ft | 525 kts | 78° |
| 2026-05-06 15:48 | 52.75370 | -43.54780 | 39233 ft | 525 kts | 78° |
| 2026-05-06 15:48 | 52.76382 | -43.42833 | 39231 ft | 525 kts | 78° |
| 2026-05-06 15:49 | 52.77388 | -43.30827 | 39232 ft | 525 kts | 78° |
| 2026-05-06 15:49 | 52.78375 | -43.18891 | 39260 ft | 523 kts | 78° |
| 2026-05-06 15:50 | 52.79341 | -43.07048 | 39237 ft | 522 kts | 78° |
| 2026-05-06 15:50 | 52.80301 | -42.95146 | 39234 ft | 522 kts | 78° |
| 2026-05-06 15:51 | 52.81251 | -42.83216 | 39233 ft | 522 kts | 79° |
| 2026-05-06 15:51 | 52.82184 | -42.71347 | 39230 ft | 522 kts | 79° |
| 2026-05-06 15:52 | 52.83108 | -42.59442 | 39255 ft | 522 kts | 79° |
| 2026-05-06 15:52 | 52.84021 | -42.47533 | 39234 ft | 522 kts | 79° |
| 2026-05-06 15:53 | 52.84923 | -42.35593 | 39225 ft | 522 kts | 79° |
| 2026-05-06 15:53 | 52.85808 | -42.23719 | 39228 ft | 522 kts | 79° |
| 2026-05-06 15:54 | 52.86683 | -42.11806 | 39227 ft | 522 kts | 79° |